sensor_id;sensor_type;location;lat;lon;timestamp;P1;durP1;ratioP1;P2;durP2;ratioP2
70683;SDS011;58263;48.146;11.440;2023-04-29T00:02:25;2.00;;;0.40;;
70683;SDS011;58263;48.146;11.440;2023-04-29T00:04:50;1.13;;;0.80;;
70683;SDS011;58263;48.146;11.440;2023-04-29T00:07:16;0.90;;;0.40;;
70683;SDS011;58263;48.146;11.440;2023-04-29T00:09:41;0.60;;;0.60;;
70683;SDS011;58263;48.146;11.440;2023-04-29T00:12:07;0.40;;;0.40;;
70683;SDS011;58263;48.146;11.440;2023-04-29T00:14:34;1.70;;;0.85;;
70683;SDS011;58263;48.146;11.440;2023-04-29T00:16:59;1.10;;;0.50;;
70683;SDS011;58263;48.146;11.440;2023-04-29T00:19:24;0.50;;;0.43;;
70683;SDS011;58263;48.146;11.440;2023-04-29T00:21:50;0.40;;;0.40;;
70683;SDS011;58263;48.146;11.440;2023-04-29T00:24:16;1.48;;;0.50;;
70683;SDS011;58263;48.146;11.440;2023-04-29T00:26:41;1.27;;;0.70;;
70683;SDS011;58263;48.146;11.440;2023-04-29T00:29:06;0.50;;;0.37;;
70683;SDS011;58263;48.146;11.440;2023-04-29T00:31:32;3.97;;;0.60;;
70683;SDS011;58263;48.146;11.440;2023-04-29T00:33:57;0.43;;;0.43;;
70683;SDS011;58263;48.146;11.440;2023-04-29T00:36:22;1.67;;;0.40;;
70683;SDS011;58263;48.146;11.440;2023-04-29T00:38:48;0.60;;;0.60;;
70683;SDS011;58263;48.146;11.440;2023-04-29T00:41:13;0.50;;;0.50;;
70683;SDS011;58263;48.146;11.440;2023-04-29T00:43:39;0.52;;;0.52;;
70683;SDS011;58263;48.146;11.440;2023-04-29T00:46:04;0.45;;;0.40;;
70683;SDS011;58263;48.146;11.440;2023-04-29T00:48:30;0.53;;;0.53;;
70683;SDS011;58263;48.146;11.440;2023-04-29T00:50:56;0.38;;;0.38;;
70683;SDS011;58263;48.146;11.440;2023-04-29T00:53:22;0.95;;;0.63;;
70683;SDS011;58263;48.146;11.440;2023-04-29T00:55:47;0.30;;;0.30;;
70683;SDS011;58263;48.146;11.440;2023-04-29T00:58:16;0.40;;;0.40;;
70683;SDS011;58263;48.146;11.440;2023-04-29T01:00:42;2.28;;;0.55;;
70683;SDS011;58263;48.146;11.440;2023-04-29T01:03:08;1.73;;;0.70;;
70683;SDS011;58263;48.146;11.440;2023-04-29T01:05:33;1.23;;;0.38;;
70683;SDS011;58263;48.146;11.440;2023-04-29T01:11:08;1.50;;;0.20;;
70683;SDS011;58263;48.146;11.440;2023-04-29T01:13:38;0.50;;;0.50;;
70683;SDS011;58263;48.146;11.440;2023-04-29T01:16:10;1.00;;;0.63;;
70683;SDS011;58263;48.146;11.440;2023-04-29T01:18:42;2.22;;;0.50;;
70683;SDS011;58263;48.146;11.440;2023-04-29T01:21:13;0.65;;;0.47;;
70683;SDS011;58263;48.146;11.440;2023-04-29T01:23:39;1.10;;;0.50;;
70683;SDS011;58263;48.146;11.440;2023-04-29T01:26:05;1.52;;;0.40;;
70683;SDS011;58263;48.146;11.440;2023-04-29T01:31:24;0.63;;;0.55;;
70683;SDS011;58263;48.146;11.440;2023-04-29T01:34:11;1.92;;;0.70;;
70683;SDS011;58263;48.146;11.440;2023-04-29T01:39:34;0.77;;;0.50;;
70683;SDS011;58263;48.146;11.440;2023-04-29T01:42:21;0.47;;;0.47;;
70683;SDS011;58263;48.146;11.440;2023-04-29T01:44:54;0.60;;;0.60;;
70683;SDS011;58263;48.146;11.440;2023-04-29T01:47:21;0.52;;;0.50;;
70683;SDS011;58263;48.146;11.440;2023-04-29T01:49:46;2.67;;;0.70;;
70683;SDS011;58263;48.146;11.440;2023-04-29T01:52:13;0.60;;;0.60;;
70683;SDS011;58263;48.146;11.440;2023-04-29T01:54:39;2.30;;;0.82;;
70683;SDS011;58263;48.146;11.440;2023-04-29T01:57:04;0.65;;;0.65;;
70683;SDS011;58263;48.146;11.440;2023-04-29T01:59:30;0.67;;;0.67;;
70683;SDS011;58263;48.146;11.440;2023-04-29T02:01:56;0.55;;;0.50;;
70683;SDS011;58263;48.146;11.440;2023-04-29T02:04:23;4.65;;;2.63;;
70683;SDS011;58263;48.146;11.440;2023-04-29T02:06:49;2.72;;;1.85;;
70683;SDS011;58263;48.146;11.440;2023-04-29T02:09:16;1.15;;;1.10;;
70683;SDS011;58263;48.146;11.440;2023-04-29T02:11:41;1.70;;;0.70;;
70683;SDS011;58263;48.146;11.440;2023-04-29T02:14:07;0.75;;;0.75;;
70683;SDS011;58263;48.146;11.440;2023-04-29T02:16:32;3.30;;;1.47;;
70683;SDS011;58263;48.146;11.440;2023-04-29T02:18:57;0.60;;;0.60;;
70683;SDS011;58263;48.146;11.440;2023-04-29T02:21:22;9.63;;;4.63;;
70683;SDS011;58263;48.146;11.440;2023-04-29T02:23:48;3.78;;;2.38;;
70683;SDS011;58263;48.146;11.440;2023-04-29T02:26:14;4.63;;;1.67;;
70683;SDS011;58263;48.146;11.440;2023-04-29T02:28:39;1.47;;;1.27;;
70683;SDS011;58263;48.146;11.440;2023-04-29T02:31:05;0.73;;;0.70;;
70683;SDS011;58263;48.146;11.440;2023-04-29T02:33:30;1.00;;;0.97;;
70683;SDS011;58263;48.146;11.440;2023-04-29T02:35:56;1.55;;;0.90;;
70683;SDS011;58263;48.146;11.440;2023-04-29T02:38:23;0.70;;;0.70;;
70683;SDS011;58263;48.146;11.440;2023-04-29T02:40:48;4.07;;;0.90;;
70683;SDS011;58263;48.146;11.440;2023-04-29T02:43:14;2.05;;;0.73;;
70683;SDS011;58263;48.146;11.440;2023-04-29T02:45:39;0.90;;;0.90;;
70683;SDS011;58263;48.146;11.440;2023-04-29T02:48:05;1.60;;;0.80;;
70683;SDS011;58263;48.146;11.440;2023-04-29T02:50:30;1.08;;;0.98;;
70683;SDS011;58263;48.146;11.440;2023-04-29T02:52:56;0.80;;;0.80;;
70683;SDS011;58263;48.146;11.440;2023-04-29T02:55:22;1.40;;;1.30;;
70683;SDS011;58263;48.146;11.440;2023-04-29T02:57:47;0.80;;;0.80;;
70683;SDS011;58263;48.146;11.440;2023-04-29T03:00:12;0.75;;;0.75;;
70683;SDS011;58263;48.146;11.440;2023-04-29T03:02:38;1.07;;;0.83;;
70683;SDS011;58263;48.146;11.440;2023-04-29T03:05:03;0.70;;;0.70;;
70683;SDS011;58263;48.146;11.440;2023-04-29T03:07:29;1.40;;;0.80;;
70683;SDS011;58263;48.146;11.440;2023-04-29T03:09:55;0.70;;;0.70;;
70683;SDS011;58263;48.146;11.440;2023-04-29T03:12:20;3.25;;;1.25;;
70683;SDS011;58263;48.146;11.440;2023-04-29T03:14:46;1.17;;;1.00;;
70683;SDS011;58263;48.146;11.440;2023-04-29T03:17:11;1.58;;;0.95;;
70683;SDS011;58263;48.146;11.440;2023-04-29T03:19:37;1.38;;;1.00;;
70683;SDS011;58263;48.146;11.440;2023-04-29T03:22:02;3.13;;;1.30;;
70683;SDS011;58263;48.146;11.440;2023-04-29T03:24:28;1.17;;;1.13;;
70683;SDS011;58263;48.146;11.440;2023-04-29T03:26:53;3.70;;;1.00;;
70683;SDS011;58263;48.146;11.440;2023-04-29T03:29:18;1.30;;;1.10;;
70683;SDS011;58263;48.146;11.440;2023-04-29T03:31:44;1.75;;;1.00;;
70683;SDS011;58263;48.146;11.440;2023-04-29T03:34:10;1.40;;;0.90;;
70683;SDS011;58263;48.146;11.440;2023-04-29T03:36:35;1.33;;;1.10;;
70683;SDS011;58263;48.146;11.440;2023-04-29T03:39:00;0.67;;;0.67;;
70683;SDS011;58263;48.146;11.440;2023-04-29T03:41:26;1.63;;;1.17;;
70683;SDS011;58263;48.146;11.440;2023-04-29T03:43:51;0.80;;;0.80;;
70683;SDS011;58263;48.146;11.440;2023-04-29T03:46:16;1.23;;;1.13;;
70683;SDS011;58263;48.146;11.440;2023-04-29T03:48:42;8.68;;;1.33;;
70683;SDS011;58263;48.146;11.440;2023-04-29T03:51:07;1.93;;;1.40;;
70683;SDS011;58263;48.146;11.440;2023-04-29T03:53:33;1.58;;;1.10;;
70683;SDS011;58263;48.146;11.440;2023-04-29T03:55:59;0.90;;;0.90;;
70683;SDS011;58263;48.146;11.440;2023-04-29T03:58:24;2.72;;;0.98;;
70683;SDS011;58263;48.146;11.440;2023-04-29T04:00:50;1.58;;;0.98;;
70683;SDS011;58263;48.146;11.440;2023-04-29T04:03:15;1.17;;;1.08;;
70683;SDS011;58263;48.146;11.440;2023-04-29T04:05:40;1.10;;;1.00;;
70683;SDS011;58263;48.146;11.440;2023-04-29T04:08:06;3.20;;;1.10;;
70683;SDS011;58263;48.146;11.440;2023-04-29T04:10:31;2.67;;;1.20;;
70683;SDS011;58263;48.146;11.440;2023-04-29T04:12:56;1.13;;;1.02;;
70683;SDS011;58263;48.146;11.440;2023-04-29T04:15:22;1.53;;;1.27;;
70683;SDS011;58263;48.146;11.440;2023-04-29T04:17:47;5.10;;;1.15;;
70683;SDS011;58263;48.146;11.440;2023-04-29T04:20:13;1.77;;;1.40;;
70683;SDS011;58263;48.146;11.440;2023-04-29T04:22:38;3.27;;;1.30;;
70683;SDS011;58263;48.146;11.440;2023-04-29T04:25:03;1.90;;;1.30;;
70683;SDS011;58263;48.146;11.440;2023-04-29T04:27:29;1.98;;;1.30;;
70683;SDS011;58263;48.146;11.440;2023-04-29T04:29:54;2.67;;;1.10;;
70683;SDS011;58263;48.146;11.440;2023-04-29T04:32:20;1.10;;;1.00;;
70683;SDS011;58263;48.146;11.440;2023-04-29T04:34:47;1.77;;;1.65;;
70683;SDS011;58263;48.146;11.440;2023-04-29T04:37:13;5.85;;;2.70;;
70683;SDS011;58263;48.146;11.440;2023-04-29T04:39:38;3.17;;;1.80;;
70683;SDS011;58263;48.146;11.440;2023-04-29T04:42:03;2.40;;;1.57;;
70683;SDS011;58263;48.146;11.440;2023-04-29T04:44:29;2.57;;;1.30;;
70683;SDS011;58263;48.146;11.440;2023-04-29T04:46:55;1.65;;;1.42;;
70683;SDS011;58263;48.146;11.440;2023-04-29T04:49:22;1.42;;;1.33;;
70683;SDS011;58263;48.146;11.440;2023-04-29T04:51:48;2.50;;;1.20;;
70683;SDS011;58263;48.146;11.440;2023-04-29T04:54:14;2.70;;;1.23;;
70683;SDS011;58263;48.146;11.440;2023-04-29T04:56:39;1.42;;;1.33;;
70683;SDS011;58263;48.146;11.440;2023-04-29T04:59:04;1.35;;;1.25;;
70683;SDS011;58263;48.146;11.440;2023-04-29T05:01:30;1.42;;;1.33;;
70683;SDS011;58263;48.146;11.440;2023-04-29T05:03:55;2.20;;;1.50;;
70683;SDS011;58263;48.146;11.440;2023-04-29T05:06:21;1.40;;;1.30;;
70683;SDS011;58263;48.146;11.440;2023-04-29T05:08:46;1.60;;;1.50;;
70683;SDS011;58263;48.146;11.440;2023-04-29T05:11:15;1.93;;;1.47;;
70683;SDS011;58263;48.146;11.440;2023-04-29T05:13:42;1.83;;;1.48;;
70683;SDS011;58263;48.146;11.440;2023-04-29T05:16:07;2.70;;;1.43;;
70683;SDS011;58263;48.146;11.440;2023-04-29T05:18:32;1.87;;;1.30;;
70683;SDS011;58263;48.146;11.440;2023-04-29T05:20:58;1.55;;;1.40;;
70683;SDS011;58263;48.146;11.440;2023-04-29T05:23:24;2.47;;;1.33;;
70683;SDS011;58263;48.146;11.440;2023-04-29T05:25:49;1.80;;;1.30;;
70683;SDS011;58263;48.146;11.440;2023-04-29T05:28:14;1.67;;;1.50;;
70683;SDS011;58263;48.146;11.440;2023-04-29T05:30:39;1.50;;;1.40;;
70683;SDS011;58263;48.146;11.440;2023-04-29T05:33:05;2.38;;;1.30;;
70683;SDS011;58263;48.146;11.440;2023-04-29T05:35:30;3.88;;;1.52;;
70683;SDS011;58263;48.146;11.440;2023-04-29T05:37:56;2.67;;;1.70;;
70683;SDS011;58263;48.146;11.440;2023-04-29T05:40:21;1.53;;;1.43;;
70683;SDS011;58263;48.146;11.440;2023-04-29T05:42:47;1.67;;;1.40;;
70683;SDS011;58263;48.146;11.440;2023-04-29T05:45:13;3.47;;;1.70;;
70683;SDS011;58263;48.146;11.440;2023-04-29T05:47:38;1.60;;;1.50;;
70683;SDS011;58263;48.146;11.440;2023-04-29T05:50:04;1.90;;;1.70;;
70683;SDS011;58263;48.146;11.440;2023-04-29T05:52:29;1.90;;;1.70;;
70683;SDS011;58263;48.146;11.440;2023-04-29T05:54:55;2.08;;;1.77;;
70683;SDS011;58263;48.146;11.440;2023-04-29T05:57:20;3.53;;;2.20;;
70683;SDS011;58263;48.146;11.440;2023-04-29T05:59:46;2.30;;;1.83;;
70683;SDS011;58263;48.146;11.440;2023-04-29T06:02:11;1.70;;;1.60;;
70683;SDS011;58263;48.146;11.440;2023-04-29T06:04:36;2.80;;;1.77;;
70683;SDS011;58263;48.146;11.440;2023-04-29T06:07:02;2.00;;;1.80;;
70683;SDS011;58263;48.146;11.440;2023-04-29T06:09:29;2.25;;;1.80;;
70683;SDS011;58263;48.146;11.440;2023-04-29T06:11:54;2.13;;;1.60;;
70683;SDS011;58263;48.146;11.440;2023-04-29T06:14:20;2.78;;;1.70;;
70683;SDS011;58263;48.146;11.440;2023-04-29T06:16:45;3.03;;;1.73;;
70683;SDS011;58263;48.146;11.440;2023-04-29T06:19:11;3.38;;;1.55;;
70683;SDS011;58263;48.146;11.440;2023-04-29T06:21:36;2.33;;;1.92;;
70683;SDS011;58263;48.146;11.440;2023-04-29T06:24:02;2.00;;;1.80;;
70683;SDS011;58263;48.146;11.440;2023-04-29T06:26:27;6.22;;;3.75;;
70683;SDS011;58263;48.146;11.440;2023-04-29T06:28:52;4.10;;;2.60;;
70683;SDS011;58263;48.146;11.440;2023-04-29T06:31:18;2.42;;;2.20;;
70683;SDS011;58263;48.146;11.440;2023-04-29T06:33:44;3.35;;;2.47;;
70683;SDS011;58263;48.146;11.440;2023-04-29T06:36:10;3.90;;;2.63;;
70683;SDS011;58263;48.146;11.440;2023-04-29T06:38:36;5.15;;;2.78;;
70683;SDS011;58263;48.146;11.440;2023-04-29T06:41:01;5.55;;;2.42;;
70683;SDS011;58263;48.146;11.440;2023-04-29T06:43:27;4.85;;;3.13;;
70683;SDS011;58263;48.146;11.440;2023-04-29T06:45:52;5.55;;;2.58;;
70683;SDS011;58263;48.146;11.440;2023-04-29T06:48:17;4.50;;;3.03;;
70683;SDS011;58263;48.146;11.440;2023-04-29T06:50:53;2.70;;;2.50;;
70683;SDS011;58263;48.146;11.440;2023-04-29T06:53:20;4.28;;;3.20;;
70683;SDS011;58263;48.146;11.440;2023-04-29T06:55:46;3.22;;;2.80;;
70683;SDS011;58263;48.146;11.440;2023-04-29T06:58:12;3.35;;;2.63;;
70683;SDS011;58263;48.146;11.440;2023-04-29T07:00:38;2.65;;;2.45;;
70683;SDS011;58263;48.146;11.440;2023-04-29T07:03:03;3.20;;;2.40;;
70683;SDS011;58263;48.146;11.440;2023-04-29T07:05:28;2.70;;;2.50;;
70683;SDS011;58263;48.146;11.440;2023-04-29T07:07:54;4.17;;;2.57;;
70683;SDS011;58263;48.146;11.440;2023-04-29T07:10:19;2.60;;;2.30;;
70683;SDS011;58263;48.146;11.440;2023-04-29T07:12:44;6.90;;;2.30;;
70683;SDS011;58263;48.146;11.440;2023-04-29T07:15:10;3.40;;;2.40;;
70683;SDS011;58263;48.146;11.440;2023-04-29T07:17:35;2.40;;;2.20;;
70683;SDS011;58263;48.146;11.440;2023-04-29T07:20:00;2.47;;;2.27;;
70683;SDS011;58263;48.146;11.440;2023-04-29T07:22:26;3.72;;;2.60;;
70683;SDS011;58263;48.146;11.440;2023-04-29T07:24:54;4.47;;;2.70;;
70683;SDS011;58263;48.146;11.440;2023-04-29T07:27:21;2.85;;;2.50;;
70683;SDS011;58263;48.146;11.440;2023-04-29T07:29:46;3.38;;;2.50;;
70683;SDS011;58263;48.146;11.440;2023-04-29T07:32:12;2.40;;;2.20;;
70683;SDS011;58263;48.146;11.440;2023-04-29T07:34:37;3.27;;;2.43;;
70683;SDS011;58263;48.146;11.440;2023-04-29T07:37:02;3.30;;;2.47;;
70683;SDS011;58263;48.146;11.440;2023-04-29T07:39:28;4.95;;;2.90;;
70683;SDS011;58263;48.146;11.440;2023-04-29T07:41:54;3.28;;;2.47;;
70683;SDS011;58263;48.146;11.440;2023-04-29T07:44:19;2.63;;;2.13;;
70683;SDS011;58263;48.146;11.440;2023-04-29T07:46:46;3.95;;;2.28;;
70683;SDS011;58263;48.146;11.440;2023-04-29T07:49:11;3.15;;;2.30;;
70683;SDS011;58263;48.146;11.440;2023-04-29T07:51:39;3.72;;;2.28;;
70683;SDS011;58263;48.146;11.440;2023-04-29T07:54:05;4.78;;;2.22;;
70683;SDS011;58263;48.146;11.440;2023-04-29T07:56:31;2.47;;;2.20;;
70683;SDS011;58263;48.146;11.440;2023-04-29T07:58:56;2.20;;;2.00;;
70683;SDS011;58263;48.146;11.440;2023-04-29T08:01:23;2.22;;;1.75;;
70683;SDS011;58263;48.146;11.440;2023-04-29T08:03:48;2.00;;;1.90;;
70683;SDS011;58263;48.146;11.440;2023-04-29T08:06:14;2.73;;;1.97;;
70683;SDS011;58263;48.146;11.440;2023-04-29T08:08:39;3.73;;;1.87;;
70683;SDS011;58263;48.146;11.440;2023-04-29T08:11:04;3.10;;;1.90;;
70683;SDS011;58263;48.146;11.440;2023-04-29T08:13:30;2.67;;;1.92;;
70683;SDS011;58263;48.146;11.440;2023-04-29T08:15:55;4.40;;;1.60;;
70683;SDS011;58263;48.146;11.440;2023-04-29T08:18:21;2.13;;;1.80;;
70683;SDS011;58263;48.146;11.440;2023-04-29T08:20:46;3.50;;;2.35;;
70683;SDS011;58263;48.146;11.440;2023-04-29T08:23:13;2.05;;;1.80;;
70683;SDS011;58263;48.146;11.440;2023-04-29T08:25:42;2.90;;;2.20;;
70683;SDS011;58263;48.146;11.440;2023-04-29T08:28:08;3.08;;;1.80;;
70683;SDS011;58263;48.146;11.440;2023-04-29T08:30:36;1.80;;;1.38;;
70683;SDS011;58263;48.146;11.440;2023-04-29T08:33:02;1.90;;;1.50;;
70683;SDS011;58263;48.146;11.440;2023-04-29T08:35:27;1.65;;;1.25;;
70683;SDS011;58263;48.146;11.440;2023-04-29T08:37:53;1.80;;;1.67;;
70683;SDS011;58263;48.146;11.440;2023-04-29T08:40:18;1.63;;;1.40;;
70683;SDS011;58263;48.146;11.440;2023-04-29T08:42:43;1.45;;;1.35;;
70683;SDS011;58263;48.146;11.440;2023-04-29T08:45:09;1.40;;;1.30;;
70683;SDS011;58263;48.146;11.440;2023-04-29T08:47:35;1.70;;;1.20;;
70683;SDS011;58263;48.146;11.440;2023-04-29T08:50:02;1.98;;;1.40;;
70683;SDS011;58263;48.146;11.440;2023-04-29T08:52:29;1.70;;;1.33;;
70683;SDS011;58263;48.146;11.440;2023-04-29T08:54:58;2.78;;;1.40;;
70683;SDS011;58263;48.146;11.440;2023-04-29T08:57:26;1.60;;;1.50;;
70683;SDS011;58263;48.146;11.440;2023-04-29T08:59:53;2.53;;;1.40;;
70683;SDS011;58263;48.146;11.440;2023-04-29T09:02:19;1.67;;;1.50;;
70683;SDS011;58263;48.146;11.440;2023-04-29T09:04:48;1.50;;;1.40;;
70683;SDS011;58263;48.146;11.440;2023-04-29T09:07:21;1.40;;;1.30;;
70683;SDS011;58263;48.146;11.440;2023-04-29T09:09:48;1.85;;;1.45;;
70683;SDS011;58263;48.146;11.440;2023-04-29T09:12:14;2.03;;;1.20;;
70683;SDS011;58263;48.146;11.440;2023-04-29T09:14:39;1.50;;;1.40;;
70683;SDS011;58263;48.146;11.440;2023-04-29T09:17:05;1.33;;;1.30;;
70683;SDS011;58263;48.146;11.440;2023-04-29T09:19:34;1.45;;;1.35;;
70683;SDS011;58263;48.146;11.440;2023-04-29T09:22:00;14.20;;;2.10;;
70683;SDS011;58263;48.146;11.440;2023-04-29T09:24:27;22.73;;;2.85;;
70683;SDS011;58263;48.146;11.440;2023-04-29T09:26:54;4.20;;;1.50;;
70683;SDS011;58263;48.146;11.440;2023-04-29T09:29:20;2.15;;;1.50;;
70683;SDS011;58263;48.146;11.440;2023-04-29T09:31:47;2.72;;;1.40;;
70683;SDS011;58263;48.146;11.440;2023-04-29T09:34:13;11.73;;;2.00;;
70683;SDS011;58263;48.146;11.440;2023-04-29T09:39:12;1.38;;;1.23;;
70683;SDS011;58263;48.146;11.440;2023-04-29T09:44:16;2.30;;;1.20;;
70683;SDS011;58263;48.146;11.440;2023-04-29T09:46:42;1.15;;;1.15;;
70683;SDS011;58263;48.146;11.440;2023-04-29T09:49:26;1.65;;;1.20;;
70683;SDS011;58263;48.146;11.440;2023-04-29T09:51:54;1.85;;;1.30;;
70683;SDS011;58263;48.146;11.440;2023-04-29T09:54:21;9.65;;;1.90;;
70683;SDS011;58263;48.146;11.440;2023-04-29T09:56:48;1.15;;;0.82;;
70683;SDS011;58263;48.146;11.440;2023-04-29T09:59:15;1.20;;;0.82;;
70683;SDS011;58263;48.146;11.440;2023-04-29T10:01:41;1.02;;;1.00;;
70683;SDS011;58263;48.146;11.440;2023-04-29T10:04:07;1.92;;;1.08;;
70683;SDS011;58263;48.146;11.440;2023-04-29T10:06:37;1.52;;;1.30;;
70683;SDS011;58263;48.146;11.440;2023-04-29T10:09:06;62.92;;;10.07;;
70683;SDS011;58263;48.146;11.440;2023-04-29T10:11:34;69.80;;;9.05;;
70683;SDS011;58263;48.146;11.440;2023-04-29T10:14:01;68.22;;;9.48;;
70683;SDS011;58263;48.146;11.440;2023-04-29T10:16:29;23.70;;;5.15;;
70683;SDS011;58263;48.146;11.440;2023-04-29T10:18:58;57.85;;;7.90;;
70683;SDS011;58263;48.146;11.440;2023-04-29T10:21:28;21.08;;;4.68;;
70683;SDS011;58263;48.146;11.440;2023-04-29T10:23:55;5.78;;;1.88;;
70683;SDS011;58263;48.146;11.440;2023-04-29T10:26:25;3.97;;;1.70;;
70683;SDS011;58263;48.146;11.440;2023-04-29T10:28:53;3.10;;;1.88;;
70683;SDS011;58263;48.146;11.440;2023-04-29T10:33:46;4.28;;;1.50;;
70683;SDS011;58263;48.146;11.440;2023-04-29T10:36:12;1.38;;;1.27;;
70683;SDS011;58263;48.146;11.440;2023-04-29T10:38:43;2.83;;;1.60;;
70683;SDS011;58263;48.146;11.440;2023-04-29T10:41:20;2.15;;;1.50;;
70683;SDS011;58263;48.146;11.440;2023-04-29T10:43:48;3.67;;;1.55;;
70683;SDS011;58263;48.146;11.440;2023-04-29T10:48:54;5.03;;;1.77;;
70683;SDS011;58263;48.146;11.440;2023-04-29T10:51:29;2.30;;;1.50;;
70683;SDS011;58263;48.146;11.440;2023-04-29T10:56:49;1.08;;;1.08;;
70683;SDS011;58263;48.146;11.440;2023-04-29T10:59:19;1.60;;;1.10;;
70683;SDS011;58263;48.146;11.440;2023-04-29T11:01:47;1.65;;;1.30;;
70683;SDS011;58263;48.146;11.440;2023-04-29T11:04:14;1.52;;;1.20;;
70683;SDS011;58263;48.146;11.440;2023-04-29T11:06:43;2.05;;;1.20;;
70683;SDS011;58263;48.146;11.440;2023-04-29T11:14:23;2.65;;;1.00;;
70683;SDS011;58263;48.146;11.440;2023-04-29T11:16:50;0.82;;;0.82;;
70683;SDS011;58263;48.146;11.440;2023-04-29T11:19:17;15.43;;;1.88;;
70683;SDS011;58263;48.146;11.440;2023-04-29T11:21:43;3.17;;;1.10;;
70683;SDS011;58263;48.146;11.440;2023-04-29T11:24:09;2.30;;;1.20;;
70683;SDS011;58263;48.146;11.440;2023-04-29T11:26:36;15.15;;;2.05;;
70683;SDS011;58263;48.146;11.440;2023-04-29T11:29:03;1.67;;;1.20;;
70683;SDS011;58263;48.146;11.440;2023-04-29T11:31:29;5.32;;;1.20;;
70683;SDS011;58263;48.146;11.440;2023-04-29T11:33:55;2.15;;;1.08;;
70683;SDS011;58263;48.146;11.440;2023-04-29T11:36:20;2.43;;;0.97;;
70683;SDS011;58263;48.146;11.440;2023-04-29T11:38:46;1.10;;;1.10;;
70683;SDS011;58263;48.146;11.440;2023-04-29T11:41:11;1.08;;;1.00;;
70683;SDS011;58263;48.146;11.440;2023-04-29T11:43:37;1.55;;;1.10;;
70683;SDS011;58263;48.146;11.440;2023-04-29T11:46:12;0.80;;;0.80;;
70683;SDS011;58263;48.146;11.440;2023-04-29T11:48:44;1.50;;;1.00;;
70683;SDS011;58263;48.146;11.440;2023-04-29T11:51:14;1.95;;;0.93;;
70683;SDS011;58263;48.146;11.440;2023-04-29T11:53:40;0.80;;;0.80;;
70683;SDS011;58263;48.146;11.440;2023-04-29T11:56:07;1.23;;;0.90;;
70683;SDS011;58263;48.146;11.440;2023-04-29T11:58:33;1.13;;;0.70;;
70683;SDS011;58263;48.146;11.440;2023-04-29T12:00:58;0.85;;;0.73;;
70683;SDS011;58263;48.146;11.440;2023-04-29T12:03:25;1.38;;;1.10;;
70683;SDS011;58263;48.146;11.440;2023-04-29T12:05:50;1.88;;;1.00;;
70683;SDS011;58263;48.146;11.440;2023-04-29T12:08:20;1.15;;;0.90;;
70683;SDS011;58263;48.146;11.440;2023-04-29T12:10:47;3.78;;;1.20;;
70683;SDS011;58263;48.146;11.440;2023-04-29T12:13:12;1.40;;;1.25;;
70683;SDS011;58263;48.146;11.440;2023-04-29T12:15:38;1.05;;;1.00;;
70683;SDS011;58263;48.146;11.440;2023-04-29T12:18:04;1.20;;;1.10;;
70683;SDS011;58263;48.146;11.440;2023-04-29T12:20:30;1.23;;;0.82;;
70683;SDS011;58263;48.146;11.440;2023-04-29T12:22:56;1.15;;;0.70;;
70683;SDS011;58263;48.146;11.440;2023-04-29T12:25:35;1.20;;;1.10;;
70683;SDS011;58263;48.146;11.440;2023-04-29T12:28:01;1.00;;;0.90;;
70683;SDS011;58263;48.146;11.440;2023-04-29T12:30:28;0.85;;;0.85;;
70683;SDS011;58263;48.146;11.440;2023-04-29T12:32:53;0.97;;;0.97;;
70683;SDS011;58263;48.146;11.440;2023-04-29T12:35:19;1.15;;;0.80;;
70683;SDS011;58263;48.146;11.440;2023-04-29T12:37:48;2.20;;;0.85;;
70683;SDS011;58263;48.146;11.440;2023-04-29T12:40:14;2.50;;;1.10;;
70683;SDS011;58263;48.146;11.440;2023-04-29T12:42:40;0.95;;;0.95;;
70683;SDS011;58263;48.146;11.440;2023-04-29T12:45:06;1.55;;;1.17;;
70683;SDS011;58263;48.146;11.440;2023-04-29T12:47:32;0.98;;;0.98;;
70683;SDS011;58263;48.146;11.440;2023-04-29T12:49:59;0.65;;;0.65;;
70683;SDS011;58263;48.146;11.440;2023-04-29T12:52:25;1.38;;;0.95;;
70683;SDS011;58263;48.146;11.440;2023-04-29T12:54:50;0.67;;;0.53;;
70683;SDS011;58263;48.146;11.440;2023-04-29T12:57:15;1.10;;;1.07;;
70683;SDS011;58263;48.146;11.440;2023-04-29T12:59:41;0.90;;;0.90;;
70683;SDS011;58263;48.146;11.440;2023-04-29T13:02:06;1.90;;;0.80;;
70683;SDS011;58263;48.146;11.440;2023-04-29T13:04:31;1.63;;;0.90;;
70683;SDS011;58263;48.146;11.440;2023-04-29T13:06:57;1.37;;;0.90;;
70683;SDS011;58263;48.146;11.440;2023-04-29T13:09:27;0.50;;;0.50;;
70683;SDS011;58263;48.146;11.440;2023-04-29T13:11:53;1.85;;;1.10;;
70683;SDS011;58263;48.146;11.440;2023-04-29T13:14:18;0.60;;;0.60;;
70683;SDS011;58263;48.146;11.440;2023-04-29T13:16:44;0.93;;;0.93;;
70683;SDS011;58263;48.146;11.440;2023-04-29T13:19:10;1.75;;;0.82;;
70683;SDS011;58263;48.146;11.440;2023-04-29T13:21:35;1.50;;;0.80;;
70683;SDS011;58263;48.146;11.440;2023-04-29T13:24:00;1.57;;;0.90;;
70683;SDS011;58263;48.146;11.440;2023-04-29T13:26:26;0.70;;;0.70;;
70683;SDS011;58263;48.146;11.440;2023-04-29T13:28:51;0.60;;;0.60;;
70683;SDS011;58263;48.146;11.440;2023-04-29T13:31:17;1.38;;;0.73;;
70683;SDS011;58263;48.146;11.440;2023-04-29T13:33:42;0.68;;;0.68;;
70683;SDS011;58263;48.146;11.440;2023-04-29T13:36:08;0.83;;;0.80;;
70683;SDS011;58263;48.146;11.440;2023-04-29T13:38:33;0.47;;;0.47;;
70683;SDS011;58263;48.146;11.440;2023-04-29T13:40:59;0.53;;;0.40;;
70683;SDS011;58263;48.146;11.440;2023-04-29T13:43:24;0.68;;;0.68;;
70683;SDS011;58263;48.146;11.440;2023-04-29T13:45:49;1.47;;;0.83;;
70683;SDS011;58263;48.146;11.440;2023-04-29T13:48:15;0.70;;;0.70;;
70683;SDS011;58263;48.146;11.440;2023-04-29T13:50:40;1.15;;;0.77;;
70683;SDS011;58263;48.146;11.440;2023-04-29T13:53:06;0.73;;;0.70;;
70683;SDS011;58263;48.146;11.440;2023-04-29T13:55:32;0.82;;;0.82;;
70683;SDS011;58263;48.146;11.440;2023-04-29T13:57:59;1.08;;;0.98;;
70683;SDS011;58263;48.146;11.440;2023-04-29T14:00:25;0.80;;;0.80;;
70683;SDS011;58263;48.146;11.440;2023-04-29T14:02:50;0.57;;;0.57;;
70683;SDS011;58263;48.146;11.440;2023-04-29T14:05:15;0.63;;;0.63;;
70683;SDS011;58263;48.146;11.440;2023-04-29T14:07:41;1.27;;;0.83;;
70683;SDS011;58263;48.146;11.440;2023-04-29T14:10:06;0.60;;;0.60;;
70683;SDS011;58263;48.146;11.440;2023-04-29T14:12:32;2.08;;;0.85;;
70683;SDS011;58263;48.146;11.440;2023-04-29T14:14:57;0.67;;;0.67;;
70683;SDS011;58263;48.146;11.440;2023-04-29T14:17:22;0.80;;;0.73;;
70683;SDS011;58263;48.146;11.440;2023-04-29T14:19:47;0.80;;;0.80;;
70683;SDS011;58263;48.146;11.440;2023-04-29T14:22:13;0.60;;;0.60;;
70683;SDS011;58263;48.146;11.440;2023-04-29T14:24:38;0.73;;;0.60;;
70683;SDS011;58263;48.146;11.440;2023-04-29T14:27:03;1.38;;;0.90;;
70683;SDS011;58263;48.146;11.440;2023-04-29T14:29:29;7.47;;;1.35;;
70683;SDS011;58263;48.146;11.440;2023-04-29T14:31:54;0.80;;;0.80;;
70683;SDS011;58263;48.146;11.440;2023-04-29T14:34:20;1.27;;;0.60;;
70683;SDS011;58263;48.146;11.440;2023-04-29T14:36:45;0.87;;;0.77;;
70683;SDS011;58263;48.146;11.440;2023-04-29T14:39:10;0.53;;;0.50;;
70683;SDS011;58263;48.146;11.440;2023-04-29T14:41:36;1.00;;;0.90;;
70683;SDS011;58263;48.146;11.440;2023-04-29T14:44:02;1.65;;;0.82;;
70683;SDS011;58263;48.146;11.440;2023-04-29T14:46:27;1.17;;;0.73;;
70683;SDS011;58263;48.146;11.440;2023-04-29T14:48:53;1.42;;;0.70;;
70683;SDS011;58263;48.146;11.440;2023-04-29T14:51:18;0.80;;;0.80;;
70683;SDS011;58263;48.146;11.440;2023-04-29T14:53:43;0.70;;;0.70;;
70683;SDS011;58263;48.146;11.440;2023-04-29T14:56:09;0.63;;;0.63;;